createdAt,value
2022-11-09T00:03:05.603Z,2.00
2022-11-09T00:08:12.565Z,2.23
2022-11-09T00:13:15.484Z,2.00
2022-11-09T00:18:18.291Z,2.13
2022-11-09T00:23:21.542Z,2.53
2022-11-09T00:28:24.630Z,2.00
2022-11-09T00:33:27.480Z,2.17
2022-11-09T00:38:30.220Z,2.33
2022-11-09T00:43:33.557Z,2.20
2022-11-09T00:48:36.741Z,2.20
2022-11-09T00:53:40.671Z,2.30
2022-11-09T00:58:43.423Z,2.30
2022-11-09T01:03:46.790Z,2.13
2022-11-09T01:08:50.568Z,2.10
2022-11-09T01:13:53.841Z,2.50
2022-11-09T01:19:00.642Z,2.40
2022-11-09T01:24:03.852Z,2.00
2022-11-09T01:29:06.578Z,2.13
2022-11-09T01:34:09.521Z,2.30
2022-11-09T01:39:12.323Z,2.40
2022-11-09T01:44:17.844Z,2.30
2022-11-09T01:49:52.887Z,2.37
2022-11-09T01:55:18.720Z,1.90
2022-11-09T02:00:21.643Z,2.37
2022-11-09T02:05:31.049Z,2.33
2022-11-09T02:11:02.277Z,2.40
2022-11-09T02:16:08.452Z,2.30
2022-11-09T02:21:11.260Z,2.40
2022-11-09T02:26:35.944Z,2.03
2022-11-09T02:31:44.901Z,2.10
2022-11-09T02:36:49.219Z,1.83
2022-11-09T02:42:18.363Z,1.93
2022-11-09T02:47:24.384Z,2.17
2022-11-09T02:52:27.214Z,2.10
2022-11-09T02:57:29.990Z,1.77
2022-11-09T03:02:34.136Z,2.00
2022-11-09T03:07:38.034Z,2.00
2022-11-09T03:12:40.859Z,2.10
2022-11-09T03:17:49.436Z,2.00
2022-11-09T03:22:59.306Z,2.10
2022-11-09T03:28:06.144Z,1.90
2022-11-09T03:33:12.784Z,2.40
2022-11-09T03:38:17.077Z,2.00
2022-11-09T03:43:20.626Z,2.20
2022-11-09T03:48:23.757Z,2.30
2022-11-09T03:53:26.515Z,2.50
2022-11-09T03:58:29.313Z,2.10
2022-11-09T04:03:32.134Z,2.20
2022-11-09T04:08:34.874Z,2.13
2022-11-09T04:13:37.559Z,2.30
2022-11-09T04:18:40.248Z,2.27
2022-11-09T04:23:43.059Z,2.10
2022-11-09T04:28:45.759Z,2.23
2022-11-09T04:33:51.811Z,2.40
2022-11-09T04:38:54.493Z,3.90
2022-11-09T04:43:57.100Z,2.80
2022-11-09T04:48:59.899Z,2.40
2022-11-09T04:54:02.705Z,2.37
2022-11-09T04:59:06.694Z,2.67
2022-11-09T05:04:10.285Z,2.50
2022-11-09T05:09:13.055Z,2.30
2022-11-09T05:14:15.813Z,2.40
2022-11-09T05:19:18.610Z,2.50
2022-11-09T05:24:21.412Z,2.27
2022-11-09T05:29:24.225Z,2.63
2022-11-09T05:34:26.914Z,2.40
2022-11-09T05:39:29.617Z,2.70
2022-11-09T05:44:32.523Z,2.67
2022-11-09T05:49:35.313Z,2.27
2022-11-09T05:54:38.090Z,2.60
2022-11-09T05:59:40.820Z,2.90
2022-11-09T06:04:43.573Z,2.30
2022-11-09T06:09:46.343Z,2.43
2022-11-09T06:14:49.068Z,2.40
2022-11-09T06:19:51.828Z,2.40
2022-11-09T06:24:54.570Z,2.40
2022-11-09T09:30:20.429Z,3.10
2022-11-09T09:35:41.610Z,3.30
2022-11-09T09:41:17.951Z,3.43
2022-11-09T09:46:27.573Z,2.70
2022-11-09T09:51:33.036Z,2.97
2022-11-09T09:56:40.519Z,2.53
2022-11-09T10:01:47.804Z,2.53
2022-11-09T10:07:02.559Z,2.63
2022-11-09T10:12:22.790Z,2.13
2022-11-09T10:18:03.956Z,2.10
2022-11-09T10:23:31.659Z,2.23
2022-11-09T10:29:14.624Z,2.07
2022-11-09T10:34:30.042Z,1.80
2022-11-09T10:39:47.152Z,1.90
2022-11-09T10:45:30.208Z,1.80
2022-11-09T10:50:53.014Z,1.70
2022-11-09T10:56:21.790Z,1.30
2022-11-09T11:01:43.808Z,1.30
2022-11-09T11:07:20.560Z,1.00
2022-11-09T11:12:43.853Z,1.20
2022-11-09T11:18:24.794Z,1.30
2022-11-09T11:24:02.910Z,1.20
2022-11-09T11:29:55.184Z,1.43
2022-11-09T11:35:23.288Z,1.30
2022-11-09T11:40:50.247Z,1.20
2022-11-09T11:46:34.501Z,1.13
2022-11-09T11:52:07.483Z,1.30
2022-11-09T11:57:37.753Z,1.10
2022-11-09T12:03:21.043Z,1.27
2022-11-09T12:09:01.169Z,1.40
2022-11-09T12:14:57.370Z,0.90
2022-11-09T12:20:29.026Z,1.00
2022-11-09T12:26:23.836Z,1.10
2022-11-09T12:32:00.259Z,1.03
2022-11-09T12:37:28.273Z,1.10
2022-11-09T12:43:24.236Z,1.00
2022-11-09T12:48:47.016Z,1.30
2022-11-09T12:54:11.882Z,1.13
2022-11-09T12:59:50.144Z,1.40
2022-11-09T13:05:31.953Z,1.30
2022-11-09T13:11:18.178Z,1.40
2022-11-09T13:16:39.639Z,1.30
2022-11-09T13:22:16.149Z,1.30
2022-11-09T13:27:44.952Z,1.40
2022-11-09T13:33:11.794Z,1.67
2022-11-09T13:38:34.336Z,1.73
2022-11-09T13:44:16.748Z,1.40
2022-11-09T13:49:44.921Z,1.70
2022-11-09T13:55:23.533Z,1.60
2022-11-09T14:00:48.059Z,1.50
2022-11-09T14:06:13.492Z,1.60
2022-11-09T14:11:49.788Z,1.60
2022-11-09T14:17:26.344Z,1.83
2022-11-09T14:22:47.576Z,1.40
2022-11-09T14:28:28.985Z,1.60
2022-11-09T14:34:03.341Z,1.80
2022-11-09T14:39:28.477Z,1.73
2022-11-09T14:44:49.968Z,1.87
2022-11-09T14:50:23.886Z,2.00
2022-11-09T14:55:46.571Z,1.97
2022-11-09T15:01:24.140Z,2.10
2022-11-09T15:06:51.975Z,2.40
2022-11-09T15:12:18.340Z,2.60
2022-11-09T15:17:46.404Z,2.33
2022-11-09T15:23:37.379Z,2.90
2022-11-09T15:28:58.844Z,3.00
2022-11-09T15:34:24.708Z,2.87
2022-11-09T15:39:46.055Z,2.97
2022-11-09T15:45:07.814Z,2.63
2022-11-09T15:50:29.472Z,3.10
2022-11-09T15:55:51.413Z,3.53
2022-11-09T16:01:12.943Z,3.17
2022-11-09T16:06:33.985Z,3.73
2022-11-09T16:11:55.390Z,3.10
2022-11-09T16:17:16.845Z,2.70
2022-11-09T16:22:38.337Z,2.50
2022-11-09T16:28:00.552Z,2.53
2022-11-09T16:33:21.964Z,2.67
2022-11-09T16:38:46.149Z,2.30
2022-11-09T16:44:07.604Z,2.20
2022-11-09T16:49:28.787Z,2.60
2022-11-09T16:54:50.243Z,2.40
2022-11-09T17:00:13.108Z,2.60
2022-11-09T17:05:34.416Z,2.57
2022-11-09T17:10:55.498Z,2.57
2022-11-09T17:16:20.391Z,2.87
2022-11-09T17:21:41.568Z,3.00
2022-11-09T17:27:02.729Z,2.57
2022-11-09T17:32:27.484Z,2.70
2022-11-09T17:37:48.932Z,3.13
2022-11-09T17:43:10.200Z,3.27
2022-11-09T17:48:32.871Z,3.50
2022-11-09T17:53:54.329Z,3.73
2022-11-09T17:59:15.691Z,3.43
2022-11-09T18:04:38.143Z,3.30
2022-11-09T18:09:59.422Z,3.30
2022-11-09T18:15:24.360Z,3.43
2022-11-09T18:20:45.833Z,3.70
2022-11-09T18:26:08.935Z,3.53
2022-11-09T18:31:30.261Z,3.23
2022-11-09T18:36:51.432Z,4.17
2022-11-09T18:42:12.633Z,3.53
2022-11-09T18:47:33.885Z,3.20
2022-11-09T18:52:55.207Z,3.07
2022-11-09T18:58:17.993Z,3.00
2022-11-09T19:03:39.226Z,3.23
2022-11-09T19:09:19.150Z,3.20
2022-11-09T19:14:44.196Z,3.63
2022-11-09T19:20:05.868Z,3.10
2022-11-09T19:25:27.025Z,3.37
2022-11-09T19:30:48.374Z,3.43
2022-11-09T19:41:51.814Z,3.70
2022-11-09T19:47:13.074Z,3.37
2022-11-09T19:52:34.087Z,3.77
2022-11-09T19:57:55.428Z,3.37
2022-11-09T20:03:16.876Z,3.80
2022-11-09T20:08:38.520Z,3.87
2022-11-09T20:13:59.715Z,4.20
2022-11-09T20:19:21.818Z,4.13
2022-11-09T20:24:43.151Z,4.23
2022-11-09T20:30:05.380Z,4.13
2022-11-09T20:35:26.803Z,4.17
2022-11-09T20:40:58.851Z,4.03
2022-11-09T20:46:22.555Z,4.37
2022-11-09T20:51:43.837Z,4.47
